sensor_id;sensor_type;location;lat;lon;timestamp;pressure;altitude;pressure_sealevel;temperature;humidity
46199;BME280;31928;52.104;10.030;2023-11-19T00:01:43;99985.09;;;10.23;58.41
46199;BME280;31928;52.104;10.030;2023-11-19T00:04:10;99993.72;;;10.25;58.25
46199;BME280;31928;52.104;10.030;2023-11-19T00:06:36;99991.22;;;10.30;58.17
46199;BME280;31928;52.104;10.030;2023-11-19T00:09:03;99977.59;;;10.32;58.19
46199;BME280;31928;52.104;10.030;2023-11-19T00:11:30;99965.63;;;10.34;58.48
46199;BME280;31928;52.104;10.030;2023-11-19T00:13:56;99967.66;;;10.39;58.28
46199;BME280;31928;52.104;10.030;2023-11-19T00:16:23;99970.91;;;10.41;58.19
46199;BME280;31928;52.104;10.030;2023-11-19T00:18:50;99959.78;;;10.44;58.12
46199;BME280;31928;52.104;10.030;2023-11-19T00:21:16;99955.22;;;10.44;57.87
46199;BME280;31928;52.104;10.030;2023-11-19T00:23:43;99942.47;;;10.40;59.43
46199;BME280;31928;52.104;10.030;2023-11-19T00:26:10;99945.75;;;10.42;59.32
46199;BME280;31928;52.104;10.030;2023-11-19T00:28:37;99935.78;;;10.49;58.38
46199;BME280;31928;52.104;10.030;2023-11-19T00:31:05;99951.84;;;10.49;59.12
46199;BME280;31928;52.104;10.030;2023-11-19T00:33:31;99920.53;;;10.49;58.92
46199;BME280;31928;52.104;10.030;2023-11-19T00:35:58;99909.59;;;10.51;58.68
46199;BME280;31928;52.104;10.030;2023-11-19T00:38:25;99915.56;;;10.53;58.20
46199;BME280;31928;52.104;10.030;2023-11-19T00:40:51;99906.91;;;10.51;58.76
46199;BME280;31928;52.104;10.030;2023-11-19T00:43:18;99902.75;;;10.55;58.39
46199;BME280;31928;52.104;10.030;2023-11-19T00:45:48;99894.69;;;10.55;58.86
46199;BME280;31928;52.104;10.030;2023-11-19T00:48:16;99871.19;;;10.57;58.76
46199;BME280;31928;52.104;10.030;2023-11-19T00:50:43;99878.63;;;10.55;59.64
46199;BME280;31928;52.104;10.030;2023-11-19T00:53:11;99863.16;;;10.57;58.92
46199;BME280;31928;52.104;10.030;2023-11-19T00:55:38;99867.66;;;10.56;59.52
46199;BME280;31928;52.104;10.030;2023-11-19T00:58:12;99851.16;;;10.59;58.74
46199;BME280;31928;52.104;10.030;2023-11-19T01:00:39;99843.31;;;10.58;58.85
46199;BME280;31928;52.104;10.030;2023-11-19T01:03:06;99838.34;;;10.61;58.36
46199;BME280;31928;52.104;10.030;2023-11-19T01:05:33;99860.59;;;10.62;58.85
46199;BME280;31928;52.104;10.030;2023-11-19T01:08:00;99836.03;;;10.65;58.34
46199;BME280;31928;52.104;10.030;2023-11-19T01:10:27;99836.25;;;10.63;58.62
46199;BME280;31928;52.104;10.030;2023-11-19T01:12:55;99848.97;;;10.68;58.49
46199;BME280;31928;52.104;10.030;2023-11-19T01:15:22;99839.88;;;10.69;58.72
46199;BME280;31928;52.104;10.030;2023-11-19T01:17:49;99824.38;;;10.71;58.68
46199;BME280;31928;52.104;10.030;2023-11-19T01:20:18;99820.66;;;10.72;58.79
46199;BME280;31928;52.104;10.030;2023-11-19T01:22:47;99813.47;;;10.72;58.59
46199;BME280;31928;52.104;10.030;2023-11-19T01:25:15;99810.06;;;10.77;58.53
46199;BME280;31928;52.104;10.030;2023-11-19T01:27:42;99802.63;;;10.78;58.82
46199;BME280;31928;52.104;10.030;2023-11-19T01:30:08;99819.31;;;10.80;58.83
46199;BME280;31928;52.104;10.030;2023-11-19T01:32:40;99789.34;;;10.83;58.67
46199;BME280;31928;52.104;10.030;2023-11-19T01:35:07;99780.03;;;10.86;59.12
46199;BME280;31928;52.104;10.030;2023-11-19T01:37:34;99791.34;;;10.88;58.84
46199;BME280;31928;52.104;10.030;2023-11-19T01:40:02;99807.81;;;10.91;59.04
46199;BME280;31928;52.104;10.030;2023-11-19T01:42:42;99793.94;;;10.94;58.80
46199;BME280;31928;52.104;10.030;2023-11-19T01:45:08;99785.28;;;10.92;59.50
46199;BME280;31928;52.104;10.030;2023-11-19T01:47:36;99786.03;;;10.99;58.64
46199;BME280;31928;52.104;10.030;2023-11-19T01:50:04;99800.63;;;11.03;58.76
46199;BME280;31928;52.104;10.030;2023-11-19T01:52:33;99797.47;;;11.06;58.57
46199;BME280;31928;52.104;10.030;2023-11-19T01:55:01;99793.75;;;11.07;58.32
46199;BME280;31928;52.104;10.030;2023-11-19T01:57:29;99783.13;;;11.12;58.39
46199;BME280;31928;52.104;10.030;2023-11-19T01:59:56;99788.28;;;11.14;58.51
46199;BME280;31928;52.104;10.030;2023-11-19T02:02:23;99776.72;;;11.13;59.36
46199;BME280;31928;52.104;10.030;2023-11-19T02:04:50;99770.44;;;11.19;58.61
46199;BME280;31928;52.104;10.030;2023-11-19T02:07:17;99757.00;;;11.19;58.94
46199;BME280;31928;52.104;10.030;2023-11-19T02:09:44;99760.78;;;11.18;60.04
46199;BME280;31928;52.104;10.030;2023-11-19T02:12:10;99773.00;;;11.26;59.08
46199;BME280;31928;52.104;10.030;2023-11-19T02:14:43;99764.94;;;11.26;59.44
46199;BME280;31928;52.104;10.030;2023-11-19T02:17:24;99762.63;;;11.29;59.44
46199;BME280;31928;52.104;10.030;2023-11-19T02:19:51;99756.34;;;11.35;58.90
46199;BME280;31928;52.104;10.030;2023-11-19T02:22:17;99733.25;;;11.34;59.46
46199;BME280;31928;52.104;10.030;2023-11-19T02:24:44;99729.03;;;11.38;58.98
46199;BME280;31928;52.104;10.030;2023-11-19T02:27:57;99731.47;;;11.39;59.03
46199;BME280;31928;52.104;10.030;2023-11-19T02:30:03;99739.28;;;11.41;58.92
46199;BME280;31928;52.104;10.030;2023-11-19T02:32:32;99728.13;;;11.44;58.77
46199;BME280;31928;52.104;10.030;2023-11-19T02:34:59;99720.31;;;11.42;59.40
46199;BME280;31928;52.104;10.030;2023-11-19T02:37:28;99713.63;;;11.45;59.39
46199;BME280;31928;52.104;10.030;2023-11-19T02:39:55;99709.91;;;11.46;59.12
46199;BME280;31928;52.104;10.030;2023-11-19T02:42:21;99714.22;;;11.47;59.16
46199;BME280;31928;52.104;10.030;2023-11-19T02:44:48;99700.56;;;11.48;59.06
46199;BME280;31928;52.104;10.030;2023-11-19T02:47:15;99710.28;;;11.49;58.94
46199;BME280;31928;52.104;10.030;2023-11-19T02:49:41;99699.31;;;11.51;59.47
46199;BME280;31928;52.104;10.030;2023-11-19T02:52:09;99693.47;;;11.54;59.15
46199;BME280;31928;52.104;10.030;2023-11-19T02:54:37;99695.09;;;11.55;59.04
46199;BME280;31928;52.104;10.030;2023-11-19T02:57:03;99700.47;;;11.55;59.67
46199;BME280;31928;52.104;10.030;2023-11-19T02:59:31;99687.41;;;11.58;59.11
46199;BME280;31928;52.104;10.030;2023-11-19T03:02:05;99705.47;;;11.63;58.97
46199;BME280;31928;52.104;10.030;2023-11-19T03:04:38;99674.91;;;11.64;58.92
46199;BME280;31928;52.104;10.030;2023-11-19T03:07:09;99675.94;;;11.63;59.94
46199;BME280;31928;52.104;10.030;2023-11-19T03:09:35;99653.78;;;11.67;58.92
46199;BME280;31928;52.104;10.030;2023-11-19T03:12:02;99659.50;;;11.71;59.08
46199;BME280;31928;52.104;10.030;2023-11-19T03:14:28;99660.06;;;11.73;58.94
46199;BME280;31928;52.104;10.030;2023-11-19T03:16:55;99657.72;;;11.76;59.11
46199;BME280;31928;52.104;10.030;2023-11-19T03:19:22;99665.53;;;11.78;59.08
46199;BME280;31928;52.104;10.030;2023-11-19T03:21:51;99658.88;;;11.80;59.27
46199;BME280;31928;52.104;10.030;2023-11-19T08:53:13;99634.06;;;16.44;53.95
46199;BME280;31928;52.104;10.030;2023-11-19T08:55:40;99644.31;;;16.47;54.35
46199;BME280;31928;52.104;10.030;2023-11-19T08:58:06;99635.94;;;16.49;54.58
46199;BME280;31928;52.104;10.030;2023-11-19T09:00:33;99629.19;;;16.41;53.22
46199;BME280;31928;52.104;10.030;2023-11-19T09:02:59;99635.91;;;16.44;53.86
46199;BME280;31928;52.104;10.030;2023-11-19T09:05:26;99644.88;;;16.44;53.96
46199;BME280;31928;52.104;10.030;2023-11-19T09:07:53;99649.44;;;16.44;53.47
46199;BME280;31928;52.104;10.030;2023-11-19T09:10:19;99640.25;;;16.45;54.10
46199;BME280;31928;52.104;10.030;2023-11-19T09:12:46;99652.44;;;16.42;53.47
46199;BME280;31928;52.104;10.030;2023-11-19T09:15:12;99645.66;;;16.45;54.19
46199;BME280;31928;52.104;10.030;2023-11-19T09:17:39;99644.31;;;16.47;54.35
46199;BME280;31928;52.104;10.030;2023-11-19T09:20:07;99653.25;;;16.43;53.99
46199;BME280;31928;52.104;10.030;2023-11-19T09:22:35;99667.06;;;16.41;53.61
46199;BME280;31928;52.104;10.030;2023-11-19T09:25:01;99657.59;;;16.49;54.43
46199;BME280;31928;52.104;10.030;2023-11-19T09:27:28;99653.28;;;16.48;53.88
46199;BME280;31928;52.104;10.030;2023-11-19T09:29:54;99649.47;;;16.49;53.90
46199;BME280;31928;52.104;10.030;2023-11-19T09:32:24;99667.31;;;16.50;53.58
46199;BME280;31928;52.104;10.030;2023-11-19T09:34:51;99668.41;;;16.54;54.07
46199;BME280;31928;52.104;10.030;2023-11-19T09:37:17;99685.22;;;16.56;54.56
46199;BME280;31928;52.104;10.030;2023-11-19T09:39:47;99672.47;;;16.56;54.22
46199;BME280;31928;52.104;10.030;2023-11-19T09:42:13;99661.38;;;16.58;53.90
46199;BME280;31928;52.104;10.030;2023-11-19T09:44:40;99690.63;;;16.61;54.20
46199;BME280;31928;52.104;10.030;2023-11-19T09:47:07;99674.94;;;16.63;54.27
46199;BME280;31928;52.104;10.030;2023-11-19T09:49:34;99683.88;;;16.63;53.89
46199;BME280;31928;52.104;10.030;2023-11-19T09:52:02;99681.97;;;16.64;54.35
46199;BME280;31928;52.104;10.030;2023-11-19T09:54:29;99672.22;;;16.63;53.97
46199;BME280;31928;52.104;10.030;2023-11-19T09:56:56;99677.66;;;16.68;54.12
46199;BME280;31928;52.104;10.030;2023-11-19T09:59:26;99682.53;;;16.61;52.53
46199;BME280;31928;52.104;10.030;2023-11-19T10:01:54;99679.81;;;16.71;53.01
46199;BME280;31928;52.104;10.030;2023-11-19T10:04:20;99681.44;;;16.77;53.68
46199;BME280;31928;52.104;10.030;2023-11-19T10:06:47;99683.34;;;16.81;53.50
46199;BME280;31928;52.104;10.030;2023-11-19T10:09:14;99676.56;;;16.83;53.18
46199;BME280;31928;52.104;10.030;2023-11-19T10:11:41;99695.53;;;16.88;53.93
46199;BME280;31928;52.104;10.030;2023-11-19T10:14:08;99692.81;;;16.88;53.39
46199;BME280;31928;52.104;10.030;2023-11-19T10:16:35;99683.63;;;16.89;53.41
46199;BME280;31928;52.104;10.030;2023-11-19T10:19:01;99688.50;;;16.87;52.58
46199;BME280;31928;52.104;10.030;2023-11-19T10:21:28;99689.03;;;16.84;52.16
46199;BME280;31928;52.104;10.030;2023-11-19T10:23:55;99695.28;;;16.80;52.30
46199;BME280;31928;52.104;10.030;2023-11-19T10:26:27;99688.75;;;16.81;52.53
46199;BME280;31928;52.104;10.030;2023-11-19T10:28:54;99704.19;;;16.81;53.07
46199;BME280;31928;52.104;10.030;2023-11-19T10:31:21;99693.91;;;16.78;53.07
46199;BME280;31928;52.104;10.030;2023-11-19T10:33:53;99692.81;;;16.74;52.96
46199;BME280;31928;52.104;10.030;2023-11-19T10:36:20;99692.81;;;16.74;52.95
46199;BME280;31928;52.104;10.030;2023-11-19T10:38:55;99687.41;;;16.74;53.30
46199;BME280;31928;52.104;10.030;2023-11-19T10:41:32;99677.94;;;16.71;53.17
46199;BME280;31928;52.104;10.030;2023-11-19T10:43:59;99686.84;;;16.67;53.16
46199;BME280;31928;52.104;10.030;2023-11-19T10:46:39;99681.44;;;16.67;53.73
46199;BME280;31928;52.104;10.030;2023-11-19T10:49:06;99681.19;;;16.63;53.45
46199;BME280;31928;52.104;10.030;2023-11-19T10:51:33;99677.09;;;16.61;53.48
46199;BME280;31928;52.104;10.030;2023-11-19T10:54:03;99683.31;;;16.61;53.95
46199;BME280;31928;52.104;10.030;2023-11-19T10:56:32;99678.19;;;16.60;54.23
46199;BME280;31928;52.104;10.030;2023-11-19T10:59:00;99666.78;;;16.58;54.02
46199;BME280;31928;52.104;10.030;2023-11-19T11:01:27;99671.13;;;16.59;54.01
46199;BME280;31928;52.104;10.030;2023-11-19T11:04:00;99678.47;;;16.63;53.77
46199;BME280;31928;52.104;10.030;2023-11-19T11:06:28;99654.63;;;16.60;52.99
46199;BME280;31928;52.104;10.030;2023-11-19T11:08:55;99662.75;;;16.65;53.74
46199;BME280;31928;52.104;10.030;2023-11-19T11:11:22;99663.03;;;16.69;53.84
46199;BME280;31928;52.104;10.030;2023-11-19T11:13:52;99677.09;;;16.71;53.49
46199;BME280;31928;52.104;10.030;2023-11-19T11:16:19;99663.31;;;16.67;52.59
46199;BME280;31928;52.104;10.030;2023-11-19T11:18:46;99668.75;;;16.72;53.13
46199;BME280;31928;52.104;10.030;2023-11-19T11:21:17;99664.41;;;16.71;52.75
46199;BME280;31928;52.104;10.030;2023-11-19T11:39:40;99679.03;;;16.85;51.56
46199;BME280;31928;52.104;10.030;2023-11-19T11:44:57;99675.22;;;16.86;52.25
46199;BME280;31928;52.104;10.030;2023-11-19T11:47:24;99677.13;;;16.85;52.10
46199;BME280;31928;52.104;10.030;2023-11-19T11:49:50;99677.13;;;16.85;52.75
46199;BME280;31928;52.104;10.030;2023-11-19T11:52:18;99666.84;;;16.83;51.75
46199;BME280;31928;52.104;10.030;2023-11-19T11:54:46;99698.78;;;16.81;51.46
46199;BME280;31928;52.104;10.030;2023-11-19T11:57:12;99672.00;;;16.84;51.90
46199;BME280;31928;52.104;10.030;2023-11-19T11:59:45;99680.91;;;16.84;51.92
46199;BME280;31928;52.104;10.030;2023-11-19T12:02:13;99681.75;;;16.85;52.03
46199;BME280;31928;52.104;10.030;2023-11-19T12:04:40;99679.03;;;16.85;51.31
46199;BME280;31928;52.104;10.030;2023-11-19T12:07:15;99673.88;;;16.88;51.35
46199;BME280;31928;52.104;10.030;2023-11-19T12:09:42;99680.91;;;16.89;52.12
46199;BME280;31928;52.104;10.030;2023-11-19T12:20:07;99656.00;;;16.97;50.72
46199;BME280;31928;52.104;10.030;2023-11-19T12:22:38;99647.88;;;17.02;51.61
46199;BME280;31928;52.104;10.030;2023-11-19T12:25:05;99663.84;;;17.04;51.25
46199;BME280;31928;52.104;10.030;2023-11-19T12:27:33;99663.06;;;17.08;51.70
46199;BME280;31928;52.104;10.030;2023-11-19T12:30:03;99666.56;;;17.14;51.72
46199;BME280;31928;52.104;10.030;2023-11-19T12:32:37;99663.03;;;17.18;51.98
46199;BME280;31928;52.104;10.030;2023-11-19T12:35:05;99674.44;;;17.25;52.18
46199;BME280;31928;52.104;10.030;2023-11-19T12:37:32;99671.75;;;17.30;52.17
46199;BME280;31928;52.104;10.030;2023-11-19T12:39:59;99676.88;;;17.32;50.51
46199;BME280;31928;52.104;10.030;2023-11-19T12:42:35;99667.91;;;17.41;51.81
46199;BME280;31928;52.104;10.030;2023-11-19T12:45:02;99671.69;;;17.45;50.99
46199;BME280;31928;52.104;10.030;2023-11-19T12:47:29;99671.44;;;17.47;50.68
46199;BME280;31928;52.104;10.030;2023-11-19T12:49:56;99666.53;;;17.53;51.71
46199;BME280;31928;52.104;10.030;2023-11-19T12:52:23;99674.13;;;17.56;50.61
46199;BME280;31928;52.104;10.030;2023-11-19T12:54:50;99668.41;;;17.58;49.19
46199;BME280;31928;52.104;10.030;2023-11-19T12:57:17;99672.19;;;17.72;51.03
46199;BME280;31928;52.104;10.030;2023-11-19T12:59:55;99671.38;;;17.76;51.16
46199;BME280;31928;52.104;10.030;2023-11-19T13:02:44;99667.84;;;17.71;49.34
46199;BME280;31928;52.104;10.030;2023-11-19T13:08:07;99673.81;;;17.78;49.79
46199;BME280;31928;52.104;10.030;2023-11-19T13:10:34;99667.59;;;17.72;48.66
46199;BME280;31928;52.104;10.030;2023-11-19T13:13:16;99662.97;;;17.73;49.31
46199;BME280;31928;52.104;10.030;2023-11-19T13:15:42;99662.47;;;17.66;49.72
46199;BME280;31928;52.104;10.030;2023-11-19T13:18:12;99658.13;;;17.65;50.11
46199;BME280;31928;52.104;10.030;2023-11-19T13:20:40;99664.63;;;17.59;50.22
46199;BME280;31928;52.104;10.030;2023-11-19T13:23:07;99654.91;;;17.53;50.20
46199;BME280;31928;52.104;10.030;2023-11-19T13:25:34;99664.63;;;17.49;50.71
46199;BME280;31928;52.104;10.030;2023-11-19T13:28:00;99645.94;;;17.43;50.95
46199;BME280;31928;52.104;10.030;2023-11-19T13:30:27;99642.72;;;17.36;50.44
46199;BME280;31928;52.104;10.030;2023-11-19T13:32:53;99637.88;;;17.33;50.94
46199;BME280;31928;52.104;10.030;2023-11-19T13:35:22;99635.16;;;17.28;50.55
46199;BME280;31928;52.104;10.030;2023-11-19T13:37:49;99639.47;;;17.24;51.28
46199;BME280;31928;52.104;10.030;2023-11-19T13:40:16;99632.16;;;17.19;50.67
46199;BME280;31928;52.104;10.030;2023-11-19T13:42:42;99637.56;;;17.19;51.11
46199;BME280;31928;52.104;10.030;2023-11-19T13:45:14;99633.50;;;17.17;51.54
46199;BME280;31928;52.104;10.030;2023-11-19T13:47:44;99657.38;;;17.15;51.49
46199;BME280;31928;52.104;10.030;2023-11-19T13:50:12;99643.53;;;17.11;51.43
46199;BME280;31928;52.104;10.030;2023-11-19T13:52:39;99621.88;;;17.11;51.22
46199;BME280;31928;52.104;10.030;2023-11-19T13:55:06;99622.94;;;17.10;51.53
46199;BME280;31928;52.104;10.030;2023-11-19T13:57:37;99617.28;;;17.07;50.92
46199;BME280;31928;52.104;10.030;2023-11-19T14:00:05;99614.81;;;17.05;51.05
46199;BME280;31928;52.104;10.030;2023-11-19T14:02:33;99615.94;;;17.04;51.08
46199;BME280;31928;52.104;10.030;2023-11-19T14:05:00;99627.84;;;17.03;50.73
46199;BME280;31928;52.104;10.030;2023-11-19T14:07:26;99628.38;;;17.05;51.44
46199;BME280;31928;52.104;10.030;2023-11-19T14:09:54;99628.41;;;17.00;51.28
46199;BME280;31928;52.104;10.030;2023-11-19T14:12:20;99635.97;;;16.98;51.07
46199;BME280;31928;52.104;10.030;2023-11-19T14:14:47;99635.16;;;16.98;51.23
46199;BME280;31928;52.104;10.030;2023-11-19T14:17:13;99633.25;;;16.98;51.15
46199;BME280;31928;52.104;10.030;2023-11-19T14:19:42;99632.19;;;16.99;51.60
46199;BME280;31928;52.104;10.030;2023-11-19T14:22:09;99638.69;;;16.98;51.63
46199;BME280;31928;52.104;10.030;2023-11-19T14:24:35;99639.75;;;16.97;51.57
46199;BME280;31928;52.104;10.030;2023-11-19T14:27:02;99637.59;;;16.99;51.71
46199;BME280;31928;52.104;10.030;2023-11-19T14:29:29;99646.00;;;16.98;51.63
46199;BME280;31928;52.104;10.030;2023-11-19T14:31:58;99644.09;;;16.98;51.55
46199;BME280;31928;52.104;10.030;2023-11-19T14:34:26;99643.28;;;16.98;51.72
46199;BME280;31928;52.104;10.030;2023-11-19T14:36:52;99638.69;;;16.98;51.54
46199;BME280;31928;52.104;10.030;2023-11-19T14:39:20;99635.97;;;16.93;50.81
46199;BME280;31928;52.104;10.030;2023-11-19T14:41:46;99626.22;;;16.92;51.30
46199;BME280;31928;52.104;10.030;2023-11-19T14:44:13;99632.47;;;16.93;51.19
46199;BME280;31928;52.104;10.030;2023-11-19T14:46:41;99630.56;;;16.93;51.54
46199;BME280;31928;52.104;10.030;2023-11-19T14:49:07;99631.63;;;16.92;51.25
46199;BME280;31928;52.104;10.030;2023-11-19T14:51:37;99625.41;;;16.92;50.94
46199;BME280;31928;52.104;10.030;2023-11-19T14:54:04;99611.59;;;16.93;51.18
46199;BME280;31928;52.104;10.030;2023-11-19T14:56:32;99620.78;;;16.92;51.48
46199;BME280;31928;52.104;10.030;2023-11-19T14:58:58;99621.34;;;16.89;51.18
46199;BME280;31928;52.104;10.030;2023-11-19T15:01:25;99636.50;;;16.85;50.59
46199;BME280;31928;52.104;10.030;2023-11-19T15:03:52;99624.06;;;16.84;50.89
46199;BME280;31928;52.104;10.030;2023-11-19T15:06:24;99622.44;;;16.88;51.09
46199;BME280;31928;52.104;10.030;2023-11-19T15:08:53;99634.09;;;16.84;51.02
46199;BME280;31928;52.104;10.030;2023-11-19T15:11:21;99627.03;;;16.83;51.26
46199;BME280;31928;52.104;10.030;2023-11-19T15:13:47;99634.06;;;16.74;50.50
46199;BME280;31928;52.104;10.030;2023-11-19T15:16:14;99628.94;;;16.68;50.08
46199;BME280;31928;52.104;10.030;2023-11-19T15:18:41;99623.25;;;16.74;50.67
46199;BME280;31928;52.104;10.030;2023-11-19T15:21:08;99623.25;;;16.74;51.00
46199;BME280;31928;52.104;10.030;2023-11-19T15:23:35;99622.97;;;16.71;51.08
46199;BME280;31928;52.104;10.030;2023-11-19T15:26:01;99625.94;;;16.69;50.89
46199;BME280;31928;52.104;10.030;2023-11-19T15:28:28;99622.44;;;16.64;50.39
46199;BME280;31928;52.104;10.030;2023-11-19T15:30:54;99621.88;;;16.67;51.27
46199;BME280;31928;52.104;10.030;2023-11-19T15:33:21;99619.72;;;16.64;51.19
46199;BME280;31928;52.104;10.030;2023-11-19T15:35:48;99637.03;;;16.63;51.10
46199;BME280;31928;52.104;10.030;2023-11-19T15:38:15;99625.94;;;16.64;51.25
46199;BME280;31928;52.104;10.030;2023-11-19T15:40:42;99634.06;;;16.54;50.33
46199;BME280;31928;52.104;10.030;2023-11-19T15:43:09;99616.47;;;16.57;51.01
46199;BME280;31928;52.104;10.030;2023-11-19T15:45:36;99617.84;;;16.54;50.78
46199;BME280;31928;52.104;10.030;2023-11-19T15:48:05;99622.13;;;16.55;51.17
46199;BME280;31928;52.104;10.030;2023-11-19T15:50:32;99607.81;;;16.55;50.98
46199;BME280;31928;52.104;10.030;2023-11-19T15:52:59;99618.09;;;16.58;51.18
46199;BME280;31928;52.104;10.030;2023-11-19T15:55:25;99623.50;;;16.48;50.72
46199;BME280;31928;52.104;10.030;2023-11-19T15:57:52;99614.28;;;16.49;50.90
46199;BME280;31928;52.104;10.030;2023-11-19T16:00:19;99616.19;;;16.53;51.10
46199;BME280;31928;52.104;10.030;2023-11-19T16:02:48;99620.53;;;16.49;50.59
46199;BME280;31928;52.104;10.030;2023-11-19T16:05:16;99615.38;;;16.43;50.15
46199;BME280;31928;52.104;10.030;2023-11-19T16:07:43;99613.19;;;16.45;50.38
46199;BME280;31928;52.104;10.030;2023-11-19T16:10:09;99621.06;;;16.51;50.96
46199;BME280;31928;52.104;10.030;2023-11-19T16:12:39;99627.56;;;16.50;50.58
46199;BME280;31928;52.104;10.030;2023-11-19T16:15:06;99633.25;;;16.54;51.36
46199;BME280;31928;52.104;10.030;2023-11-19T16:17:34;99623.50;;;16.48;50.43
46199;BME280;31928;52.104;10.030;2023-11-19T16:20:04;99619.72;;;16.54;50.75
46199;BME280;31928;52.104;10.030;2023-11-19T16:22:37;99618.34;;;16.51;50.75
46199;BME280;31928;52.104;10.030;2023-11-19T16:25:04;99622.97;;;16.51;50.49
46199;BME280;31928;52.104;10.030;2023-11-19T16:27:30;99629.47;;;16.55;50.93
46199;BME280;31928;52.104;10.030;2023-11-19T16:29:57;99630.53;;;16.54;50.80
46199;BME280;31928;52.104;10.030;2023-11-19T16:32:25;99621.63;;;16.53;50.74
46199;BME280;31928;52.104;10.030;2023-11-19T16:34:51;99626.19;;;16.53;50.80
46199;BME280;31928;52.104;10.030;2023-11-19T16:37:19;99631.59;;;16.53;50.91
46199;BME280;31928;52.104;10.030;2023-11-19T16:39:48;99630.53;;;16.54;50.96
46199;BME280;31928;52.104;10.030;2023-11-19T16:42:15;99631.09;;;16.56;51.04
46199;BME280;31928;52.104;10.030;2023-11-19T16:44:44;99636.50;;;16.56;51.35
46199;BME280;31928;52.104;10.030;2023-11-19T16:47:11;99637.56;;;16.50;50.82
46199;BME280;31928;52.104;10.030;2023-11-19T16:49:38;99633.78;;;16.51;50.81
46199;BME280;31928;52.104;10.030;2023-11-19T16:52:04;99651.94;;;16.50;51.19
46199;BME280;31928;52.104;10.030;2023-11-19T16:54:31;99654.88;;;16.49;50.75
46199;BME280;31928;52.104;10.030;2023-11-19T16:56:58;99655.44;;;16.51;51.24
46199;BME280;31928;52.104;10.030;2023-11-19T16:59:24;99654.88;;;16.49;51.06
46199;BME280;31928;52.104;10.030;2023-11-19T17:01:51;99656.50;;;16.50;51.33
46199;BME280;31928;52.104;10.030;2023-11-19T17:04:17;99648.38;;;16.50;51.35
46199;BME280;31928;52.104;10.030;2023-11-19T17:06:44;99641.34;;;16.49;51.20
46199;BME280;31928;52.104;10.030;2023-11-19T17:09:13;99652.16;;;16.49;51.05
46199;BME280;31928;52.104;10.030;2023-11-19T17:11:39;99655.41;;;16.46;51.34
46199;BME280;31928;52.104;10.030;2023-11-19T17:14:08;99665.16;;;16.47;51.35
46199;BME280;31928;52.104;10.030;2023-11-19T17:16:35;99652.44;;;16.47;51.45
46199;BME280;31928;52.104;10.030;2023-11-19T17:19:03;99647.88;;;16.48;51.35
46199;BME280;31928;52.104;10.030;2023-11-19T17:21:29;99647.88;;;16.48;51.39
46199;BME280;31928;52.104;10.030;2023-11-19T17:23:56;99654.88;;;16.49;51.53
46199;BME280;31928;52.104;10.030;2023-11-19T17:26:23;99649.75;;;16.47;51.82
46199;BME280;31928;52.104;10.030;2023-11-19T17:29:09;99656.50;;;16.45;51.53
46199;BME280;31928;52.104;10.030;2023-11-19T17:31:37;99663.53;;;16.41;51.36
46199;BME280;31928;52.104;10.030;2023-11-19T17:34:03;99661.09;;;16.44;51.54
46199;BME280;31928;52.104;10.030;2023-11-19T17:36:31;99660.28;;;16.44;51.40
46199;BME280;31928;52.104;10.030;2023-11-19T17:38:57;99668.94;;;16.46;51.68
46199;BME280;31928;52.104;10.030;2023-11-19T17:41:24;99651.09;;;16.45;51.94
46199;BME280;31928;52.104;10.030;2023-11-19T17:43:51;99655.41;;;16.46;51.87
46199;BME280;31928;52.104;10.030;2023-11-19T17:46:17;99659.19;;;16.40;51.77
46199;BME280;31928;52.104;10.030;2023-11-19T17:48:44;99653.25;;;16.43;51.67
46199;BME280;31928;52.104;10.030;2023-11-19T17:51:10;99662.41;;;16.32;52.24
46199;BME280;31928;52.104;10.030;2023-11-19T17:53:37;99658.09;;;16.41;52.21
46199;BME280;31928;52.104;10.030;2023-11-19T17:56:04;99658.09;;;16.41;52.23
46199;BME280;31928;52.104;10.030;2023-11-19T17:58:31;99657.28;;;16.35;52.12
46199;BME280;31928;52.104;10.030;2023-11-19T18:00:57;99659.72;;;16.37;51.89
46199;BME280;31928;52.104;10.030;2023-11-19T18:03:24;99668.91;;;16.36;52.26
46199;BME280;31928;52.104;10.030;2023-11-19T18:05:51;99653.22;;;16.33;51.96
46199;BME280;31928;52.104;10.030;2023-11-19T18:08:17;99661.06;;;16.29;51.97
46199;BME280;31928;52.104;10.030;2023-11-19T18:10:47;99654.31;;;16.32;52.20
46199;BME280;31928;52.104;10.030;2023-11-19T18:13:14;99654.84;;;16.29;52.01
46199;BME280;31928;52.104;10.030;2023-11-19T18:15:42;99664.53;;;16.25;52.18
46199;BME280;31928;52.104;10.030;2023-11-19T18:18:09;99663.72;;;16.20;52.09
46199;BME280;31928;52.104;10.030;2023-11-19T18:20:36;99663.16;;;16.18;52.23
46199;BME280;31928;52.104;10.030;2023-11-19T18:23:03;99658.81;;;16.17;52.46
46199;BME280;31928;52.104;10.030;2023-11-19T18:25:30;99655.34;;;16.21;52.37
46199;BME280;31928;52.104;10.030;2023-11-19T18:27:58;99659.13;;;16.20;52.28
46199;BME280;31928;52.104;10.030;2023-11-19T18:30:24;99653.69;;;16.20;52.39
46199;BME280;31928;52.104;10.030;2023-11-19T18:32:51;99664.53;;;16.20;52.64
46199;BME280;31928;52.104;10.030;2023-11-19T18:35:18;99655.34;;;16.21;52.62
46199;BME280;31928;52.104;10.030;2023-11-19T18:37:51;99666.16;;;16.21;52.47
46199;BME280;31928;52.104;10.030;2023-11-19T18:40:18;99668.28;;;16.19;52.34
46199;BME280;31928;52.104;10.030;2023-11-19T18:42:47;99661.25;;;16.18;52.49
46199;BME280;31928;52.104;10.030;2023-11-19T18:45:16;99658.03;;;16.16;52.66
46199;BME280;31928;52.104;10.030;2023-11-19T18:47:45;99665.06;;;16.22;52.68
46199;BME280;31928;52.104;10.030;2023-11-19T18:50:12;99653.97;;;16.19;52.25
46199;BME280;31928;52.104;10.030;2023-11-19T18:52:38;99651.28;;;16.19;52.17